Terminal Aerodrome Forecast
Issued by NWS Cleveland, OH

Home | Current Version | Previous Version | Graphics & Text | Print | Product List | Glossary On
Versions: 1 2 3 4 5 6 7 8 9 10 11 12 13 14 15 16 17 18 19
000
FTUS41 KCLE 210500
TAFERI
TAF
KERI 210538Z 2106/2206 VRB03KT P6SM SCT250
      TEMPO 2106/2110 4SM BR
     FM211000 VRB03KT 4SM BR SCT250
     FM211400 35005KT P6SM BKN040
     FM211900 35005KT P6SM SCT050
     FM212300 VRB03KT P6SM SKC=

USA.gov is the U.S. government's official web portal to all federal, state and local government web resources and services.